Gracewood, GA

3:14 PM EDT on September 03, 2015 (GMT -0400)
Augusta Regional At Bush | | Change Station
CLOSE
Current Station
Airport
Location: Augusta Bush,
Elevation: 148 ft
Nearby Weather Stations

Elev 148 ft 33.36 °N, 81.96 °W | Updated 21 minutes ago

Mostly Cloudy
Mostly Cloudy
89 °F
Feels Like 96 °F
N
4
Wind Variable Wind from NNE

Today
High -- | Low -- °F
--% Chance of Precip.
Yesterday
High -- | Low -- °F
Precip. -- in
7:03 AM 7:50 PM
Waning Gibbous, 67% visible
Pressure 29.93 in
Visibility 10.0 miles
Clouds Scattered Clouds 3800 ft
Heat Index 96 °F
Dew Point 72 °F
Humidity 57%
Rainfall 0.00 in
Snow Depth Not available.
UV 7 out of 12
Pollen 8.60 out of 12
Air Quality Not available.
Flu Activity Not available.
METAR KAGS 031853Z 02003KT 10SM SCT038 32/22 A2993 RMK AO2 SLP133 T03170222
Pressure 29.93 in
Visibility 10.0 miles
Clouds Scattered Clouds 3800 ft
Heat Index 96 °F
Dew Point 72 °F
Humidity 57%
Rainfall 0.00 in
Snow Depth Not available.
UV 7 out of 12
Pollen 8.60 out of 12
Air Quality Not available.
Flu Activity Not available.
METAR KAGS 031853Z 02003KT 10SM SCT038 32/22 A2993 RMK AO2 SLP133 T03170222

10-Day Weather Forecast

×

Almanac

Astronomy

Sep. 03, 2015 Rise Set
Actual Time
Civil Twilight
Nautical Twilight
Astronomical Twilight
Moon
Length of Visible Light
Length of Day
Tomorrow will be .
, % of the Moon is Illuminated

Today's Extremes

State Highs State Lows

Community

WunderPhotos

Upload Photos

1,852,014 photos uploaded!

WunderBlogs® & News

Nearby

Air Quality

  Air Quality AQ Index Pollutant
Not available.

Snow Depth

Station Depth Elevation

Earthquake Activity

City Distance Mag. Time & Date
Minimum magnitude displayed is 2.5.

Coastal Water Temperatures

Place Temperature

Stations

Nearby Weather Stations

Station Location Temp. Windchill Dew Point Humidity Wind Precip. Elev Updated Type